Logo AVAMET
Benvolgut visitant, si us plau, ingressa Recuperar contrasenya

València Jesús

Dades diàries. Acumulats / Últims 30 dies disponibles

Data Temperatura (°C) Humitat rel. (%) Pressió rel. (hPa) Vent (km/h) Precipitació
Mínima Mitjana Màxima Amplitud
tèrmica
Mínima Mitjana Màxima Mínima Mitjana Màxima Predom. Mitjana Ràfega
màxima
Total
(mm)
Índex-n
Mínima Mitjana Màxima Mínima Mitjana Màxima n
0 a 1
P0 max
mm 5'
Dades mensuals acumulades fins l'últim dia disponible
07/2019 21,9 23,4 25,8 27,0 28,3 30,8 37,8 15,9 23 67 90 1.008 1.012 1.017   4,0 32,2 4,8
Dades anuals acumulades fins l'últim dia disponible
2019 2,5 13,1 25,8 17,5 12,2 21,9 37,8 35,3 0 62 98 991 1.016 1.034   4,2 67,6 96,0
Últims 30 dies disponibles
20-07-2019 22,9     26,9     30,6 7,7 52 69 81 1.013 1.014 1.017 SSE 2,8 22,5 0,0
19-07-2019 23,5     26,7     29,9 6,4 54 70 79 1.013 1.014 1.015 SSE 3,0 20,9 0,0
18-07-2019 23,3     26,8     30,1 6,8 44 65 78 1.012 1.013 1.014 SSE 3,3 22,5 0,0
17-07-2019 23,7     26,7     30,1 6,4 43 66 78 1.010 1.012 1.014 SSE 3,6 27,4 0,0
16-07-2019 25,8     27,5     29,6 3,8 55 65 75 1.012 1.013 1.014 SSE 5,7 32,2 0,0
15-07-2019 23,4     26,2     30,3 6,9 52 66 75 1.009 1.009 1.010 S 1,6 14,5 0,0
14-07-2019 23,0     26,9     30,0 7,0 57 69 82 1.008 1.009 1.011 SE 2,8 27,4 0,0
13-07-2019 25,7     27,4     30,4 4,7 52 68 82 1.010 1.012 1.014 ESE 5,6 29,0 0,0
12-07-2019 23,7     27,8     32,7 9,0 43 63 79 1.012 1.013 1.014 ESE 5,4 20,9 0,0
11-07-2019 22,2     27,0     31,2 9,0 52 68 85 1.011 1.012 1.014 SE 4,9 25,7 0,0
10-07-2019 22,4     26,0     28,7 6,3 58 72 83 1.012 1.013 1.014 SE 3,8 24,1 0,0
09-07-2019 22,9     26,7     31,6 8,7 38 65 80 1.009 1.010 1.013 SSE 4,6 30,6 0,0
08-07-2019 23,8     26,1     28,3 4,5 63 75 85 1.009 1.010 1.013 SE 5,8 30,6 4,8
07-07-2019 25,5     29,3     37,8 12,3 23 62 84 1.008 1.009 1.011 SSE 4,4 30,6 0,0
06-07-2019 23,2     28,0     32,3 9,1 49 72 86 1.008 1.011 1.014 SE 3,0 19,3 0,0
05-07-2019 22,6     27,2     30,8 8,2 52 70 90 1.012 1.014 1.016 SE 2,7 19,3 0,0
04-07-2019 22,1     27,3     31,3 9,2 38 57 88 1.013 1.014 1.016 SE 2,6 20,9 0,0
03-07-2019 21,9     27,0     31,2 9,3 35 54 76 1.011 1.013 1.014 SSE 2,8 19,3 0,0
02-07-2019 23,6     26,4     29,4 5,8 54 72 88 1.012 1.014 1.015 ESE 5,5 30,6 0,0
01-07-2019 22,9     26,0     28,8 5,9 63 74 83 1.013 1.014 1.016 SSE 5,1 27,4 0,0
30-06-2019 23,0     28,3     33,0 10,0 32 47 72 1.014 1.015 1.016 SSE 1,9 16,1 0,0
29-06-2019 21,2     28,7     35,3 14,1 18 41 55 1.012 1.013 1.014 SSE 2,9 17,7 0,0
28-06-2019 22,7     28,5     33,8 11,1 33 51 76 1.013 1.015 1.017 SSE 2,6 19,3 0,0
27-06-2019 21,4     26,5     32,3 10,9 41 65 86 1.016 1.018 1.019 SSE 2,7 19,3 0,0
26-06-2019 22,4     24,5     28,5 6,1 63 79 88 1.016 1.017 1.018 SE 6,1 27,4 0,0
25-06-2019 20,8     23,9     27,3 6,5 65 78 88 1.013 1.015 1.017 SE 3,5 24,1 0,0
24-06-2019 19,9     23,5     26,8 6,9 56 73 85 1.012 1.013 1.014 SE 4,3 25,7 0,0
23-06-2019 19,7     23,9     28,2 8,5 49 71 91 1.012 1.013 1.014 SSE 2,3 19,3 0,0
22-06-2019 19,7     23,1     26,2 6,5 61 73 85 1.013 1.015 1.016 SSE 2,7 20,9 0,0
21-06-2019 20,9     23,2     26,0 5,1 65 74 84 1.012 1.013 1.015 SE 3,7 24,1 0,0
Últims 13 mesos disponibles
06/2019 14,1 18,9 23,0 23,0 21,7 27,2 35,3 21,2 38 63 79 1.007 1.014 1.020 SSE 4,2 57,9 0,0
05/2019 10,1 15,2 20,9 19,1 19,0 23,1 32,7 22,6 45 65 84 1.003 1.014 1.023 SE 4,2 49,9 16,6
04/2019 9,2 11,7 14,5 15,4 13,8 19,5 29,8 20,6 42 65 96 998 1.010 1.018 S 6,4 67,6 59,4
03/2019 7,3 10,4 16,2 15,4 13,4 20,2 29,3 22,0 41 56 84 1.008 1.021 1.028 SSE 3,6 56,3 15,0
02/2019 4,9 8,1 11,1 13,2 12,8 18,2 25,4 20,5 33 61 74 993 1.023 1.032 ESE 3,4 59,5 0,0
01/2019 2,5 7,2 12,9 12,3 12,2 17,1 20,6 18,1 37 55 74 1.000 1.017 1.029 SE 3,5 54,7 0,2
12/2018 5,4 9,4 12,8 13,4 14,4 18,9 23,7 18,3 48 68 82 1.007 1.024 1.029 SO 2,5 43,5 10,0
11/2018 7,3 11,8 16,5 14,9 14,8 18,9 24,3 17,0 50 71 93 1.000 1.014 1.022 SSO 4,1 57,9 97,4
10/2018 7,4 15,5 19,5 19,1 13,8 23,2 28,1 20,7 44 70 90 999 1.013 1.024 3,1 49,9 169,0
09/2018 17,7 21,6 23,9 24,8 25,1 28,5 32,5 14,8 68 75 84 1.010 1.017 1.027 3,6 39,0 156,2
08/2018 20,9 24,3 26,6 27,5 27,6 31,2 37,4 16,5 51 68 78 1.010 1.015 1.019 4,3 55,0 15,8
07/2018 22,2 23,6 25,2 27,1 28,2 31,0 36,4 14,2 40 68 76 1.008 1.013 1.018 4,5 39,0 1,6
06/2018 15,2 20,0 23,6 23,7 23,4 27,7 31,4 16,2 45 64 79 1.008 1.013 1.019 4,2 37,0 106,6
Tots els anys disponibles
2017 1,4 15,0 26,6 19,1 9,3 23,3 36,8 35,4 31 64 90 996 1.017 1.035 S 1,1 69,0 316,0
2016 3,3 15,1 25,8 18,9 11,1 22,8 36,6 33,3 32 64 89 994 1.017 1.036 71,0 569,8
Temperatura (°C)
Humitat relativa (%)
Velocitat del vent i ràfega màxima (km/h)
Direcció del vent (°)
Pressió (hPa)
Precipitació (mm)
Nota sobre les dades: s'avisa a l'usuari de la provisionalitat i no oficialitat d'aquestes dades
Logo AVAMET blanc
Web allotjada a Sollutia
Llicència de Creative CommonsLa web d'AVAMET i els seus continguts estan subjectes a una llicència de
Reconeixement - No Comercial - Compartir igual
Properes estacions: Altea - Club Nàutic d'Altea (Soci), Ares del Maestrat (Ajuntament Soci),      - - - - -      Últimes estacions: Catadau - Urb. Lloma Molina (Inforatge), Ontinyent - El Pilar (Soci), Asp - Poliesportiu (Soci) - - -